Lecompte, LA (71346)

4:49 PM CST on February 07, 2016 (GMT -0600)
Hwy 454 Rapides/Avoyelles Parish Line | | Change Station
CLOSE
Current Station
Personal Weather Station
Location: Ruby, LA
Elevation: 105 ft
Nearby Weather Stations

Elev 105 ft 31.16 °N, 92.22 °W | Updated 11 minutes ago

Clear
Clear
65.7 °F
Feels Like 65.7 °F
N
0.0
Wind Variable Wind from SW

Today
High -- | Low -- °F
--% Chance of Precip.
Yesterday
High -- | Low -- °F
Precip. -- in
Pressure 30.14 in
Visibility 10.0 miles
Clouds Clear
Dew Point 24 °F
Humidity 20%
Rainfall 0.00 in
Snow Depth Not available.
6:57 AM 5:50 PM
Waning Crescent, 1% visible
METAR KAEX 072153Z 24005KT 10SM CLR 16/M02 A3012 RMK AO2 SLP206 T01611022
Pressure 30.14 in
Visibility 10.0 miles
Clouds Clear
Dew Point 24 °F
Humidity 20%
Rainfall 0.00 in
Snow Depth Not available.
6:57 AM 5:50 PM
Waning Crescent, 1% visible
METAR KAEX 072153Z 24005KT 10SM CLR 16/M02 A3012 RMK AO2 SLP206 T01611022

10-Day Weather Forecast

Almanac

Astronomy

Feb. 07, 2016 Rise Set
Actual Time
Civil Twilight
Nautical Twilight
Astronomical Twilight
Moon
Length of Visible Light
Length of Day
Tomorrow will be .
, % of the Moon is Illuminated

Today's Extremes

State Highs State Lows

Community

WunderPhotos

Upload Photos

1,891,323 photos uploaded!

WunderBlog® & News

Nearby

Air Quality

  Air Quality AQ Index Pollutant
Not available.

Snow Depth

Station Depth Elevation

Earthquake Activity

City Distance Mag. Time & Date
Minimum magnitude displayed is 2.5.

Coastal Water Temperatures

Place Temperature

Stations

Nearby Weather Stations

Station Location Temp. Windchill Dew Point Humidity Wind Precip. Elev Updated Type
                   

Watches & Warnings

There are currently no watches in effect.